Latest Weather Observations for Telfer

IDW60801

Issued at 8:02 pm WST Monday 22 December 2014 (issued every 30 minutes, with the page automatically refreshed every 10 minutes)

About weather observations | Map of weather stations | Latest weather observations for WA | Other Formats
Station Details ID: 013030 Name: TELFER AERO Lat: -21.71 Lon: 122.23 Height: 291.9 m
Data from the previous 72 hours. | See also: Recent months at Telfer
Date/Time
WST
Temp
°C
App
Temp
°C
Dew
Point
Rel
Hum
%
Delta-T
°C
Wind Press
QNH
hPa
Press
MSL
hPa
Rain
since 9 am
mm
Dir
 
Spd
km/h
Gust
km/h
Spd
kts
Gust
kts
22/08:00pm 34.7 36.3 18.3 38 10.8 WSW 7 9 4 5 1007.1 1004.6 0.0
22/07:30pm 35.1 36.7 16.9 34 11.8 WSW 4 7 2 4 1006.7 1004.2 0.0
22/07:00pm 35.5 36.3 15.8 31 12.6 SSE 6 7 3 4 1006.5 1004.0 0.0
22/06:30pm 35.9 36.4 15.1 29 13.2 SSW 6 11 3 6 1006.0 1003.5 0.0
22/06:00pm 36.9 37.0 15.4 28 13.7 SW 9 15 5 8 1005.5 1003.1 0.0
22/05:30pm 37.0 37.1 15.5 28 13.7 SW 9 15 5 8 1005.3 1002.9 0.0
22/05:00pm 37.1 36.4 15.5 27 13.8 WSW 13 20 7 11 1005.3 1002.9 0.0
22/04:30pm 37.3 36.9 16.3 29 13.6 WSW 13 20 7 11 1005.3 1002.9 0.0
22/04:00pm 36.5 37.2 15.6 29 13.4 N 6 9 3 5 1005.7 1003.3 0.0
22/03:30pm 37.1 38.0 16.6 29 13.3 SW 7 17 4 9 1006.3 1003.8 0.0
22/03:00pm 36.6 36.6 16.2 29 13.2 SW 11 19 6 10 1006.7 1004.2 0.0
22/02:30pm 36.2 36.6 16.4 31 12.8 S 9 19 5 10 1007.1 1004.6 0.0
22/02:00pm 36.5 36.7 17.6 32 12.4 SW 13 17 7 9 1007.5 1005.0 0.0
22/01:30pm 36.1 35.9 17.7 33 12.1 WSW 15 28 8 15 1007.9 1005.4 0.0
22/01:00pm 35.3 35.2 17.0 33 11.9 SSW 13 20 7 11 1008.3 1005.9 0.0
22/12:30pm 35.2 36.6 17.9 36 11.3 SSW 7 19 4 10 1008.6 1006.2 0.0
22/12:00pm 34.2 36.0 18.7 40 10.3 WSW 7 17 4 9 1009.0 1006.6 0.0
22/11:30am 33.2 34.4 17.4 39 10.2 NE 7 15 4 8 1009.7 1007.2 0.0
22/11:00am 32.4 34.0 17.8 41 9.5 WNW 6 11 3 6 1010.0 1007.5 0.0
22/10:30am 31.3 33.0 18.6 46 8.3 S 7 11 4 6 1010.5 1008.0 0.0
22/10:00am 30.3 32.4 19.3 51 7.3 E 7 15 4 8 1010.8 1008.3 0.0
22/09:30am 29.3 31.9 20.5 59 5.9 N 7 11 4 6 1011.1 1008.6 0.0
22/09:00am 28.3 31.1 20.8 63 5.0 NNW 7 13 4 7 1011.0 1008.5 4.8
22/08:30am 27.2 29.1 20.5 67 4.5 NE 11 17 6 9 1011.2 1008.7 4.8
22/08:00am 26.9 28.6 21.6 72 3.6 ENE 15 22 8 12 1011.2 1008.7 4.8
22/07:30am 26.3 28.2 21.3 74 3.4 ENE 13 19 7 10 1010.9 1008.4 4.8
22/07:00am 25.7 27.9 21.8 79 2.6 NE 13 19 7 10 1010.4 1007.9 4.8
22/06:30am 25.1 28.3 21.6 81 2.3 E 7 11 4 6 1010.3 1007.8 4.8
22/06:00am 23.7 26.0 22.1 91 1.1 ESE 13 17 7 9 1009.7 1007.2 4.8
22/05:30am 23.8 26.5 22.1 90 1.1 SE 11 13 6 7 1009.0 1006.6 4.8
22/05:00am 24.1 27.3 21.6 86 1.7 SW 7 9 4 5 1008.9 1006.5 4.8
22/04:30am 23.9 26.7 21.6 87 1.5 W 9 13 5 7 1008.6 1006.2 4.8
22/04:00am 23.8 27.1 21.5 87 1.5 NW 6 11 3 6 1008.4 1006.0 4.8
22/03:30am 23.7 26.2 21.0 85 1.8 NE 9 13 5 7 1008.5 1006.1 4.8
22/03:00am 23.6 24.8 20.7 84 1.9 NNE 15 22 8 12 1007.9 1005.4 4.8
22/02:30am 23.6 25.1 21.3 87 1.5 NE 15 22 8 12 1008.1 1005.6 4.8
22/02:00am 23.8 25.2 21.1 85 1.8 ENE 15 22 8 12 1008.2 1005.8 4.8
22/01:30am 23.5 24.8 22.3 93 0.8 NE 19 26 10 14 1007.9 1005.4 4.6
22/01:00am 23.6 26.2 22.0 91 1.1 E 11 15 6 8 1009.1 1006.7 4.6
22/12:30am 23.6 26.8 21.7 89 1.3 S 7 11 4 6 1010.5 1008.0 3.8
22/12:00am 23.6 24.2 21.3 87 1.5 SW 20 30 11 16 1011.0 1008.5 1.4
 
Date/Time
WST
Temp
°C
App
Temp
°C
Dew
Point
Rel
Hum
%
Delta-T
°C
Wind Press
QNH
hPa
Press
MSL
hPa
Rain
since 9 am
mm
Dir
 
Spd
km/h
Gust
km/h
Spd
kts
Gust
kts
21/11:30pm 24.5 22.3 20.4 78 2.7 SW 32 46 17 25 1011.6 1009.2 0.0
21/11:00pm 24.7 21.6 20.4 77 2.8 SW 37 48 20 26 1011.9 1009.5 0.0
21/10:41pm 27.5 27.1 19.0 59 5.5 S 19 48 10 26 1011.3 1008.8 0.0
21/10:30pm 29.3 29.3 17.2 48 7.7 ESE 13 19 7 10 1010.8 1008.3 0.0
21/10:00pm 29.1 28.4 17.3 49 7.5 ESE 17 26 9 14 1010.4 1007.9 0.0
21/09:30pm 30.4 27.8 17.8 46 8.1 SE 28 43 15 23 1009.0 1006.6 0.0
21/09:13pm 31.4 29.4 17.3 43 9.1 SE 24 37 13 20 1008.6 1006.2 0.0
21/09:00pm 31.4 32.4 18.7 46 8.3 NNE 11 15 6 8 1007.7 1005.2 0.0
21/08:30pm 31.7 33.6 19.0 47 8.4 ENE 7 11 4 6 1007.3 1004.8 0.0
21/08:00pm 32.4 33.4 17.8 41 9.5 NE 9 13 5 7 1006.8 1004.3 0.0
21/07:30pm 33.1 34.1 17.7 40 10.0 NNW 9 13 5 7 1006.6 1004.1 0.0
21/07:00pm 32.8 34.0 18.2 42 9.6 NNW 9 17 5 9 1006.0 1003.5 0.0
21/06:30pm 33.7 33.5 18.6 40 10.0 NNW 17 24 9 13 1005.5 1003.1 0.0
21/06:00pm 34.3 33.4 18.3 38 10.5 N 20 26 11 14 1005.3 1002.9 0.0
21/05:30pm 34.8 33.0 17.9 36 11.1 NNE 24 46 13 25 1004.9 1002.4 0.0
21/05:25pm 35.6 35.6 18.2 35 11.5 NNW 15 46 8 25 1004.7 1002.2 0.0
21/05:00pm 38.7 40.0 17.5 29 14.0 WSW 7 13 4 7 1004.3 1001.8 0.0
21/04:30pm 39.1 39.0 17.8 28 14.1 SSW 15 20 8 11 1004.4 1001.9 0.0
21/04:00pm 38.4 39.4 17.7 29 13.7 NW 9 17 5 9 1004.4 1001.9 0.0
21/03:30pm 38.9 40.2 17.6 28 14.1 ESE 7 13 4 7 1004.9 1002.4 0.0
21/03:00pm 38.4 39.0 17.7 29 13.7 SW 11 20 6 11 1005.3 1002.9 0.0
21/02:30pm 39.0 39.5 18.3 30 13.8 W 13 22 7 12 1005.8 1003.4 0.0
21/02:00pm 38.4 39.0 17.7 29 13.7 WSW 11 20 6 11 1006.4 1003.9 0.0
21/01:30pm 37.6 37.7 16.5 28 13.7 NW 11 20 6 11 1007.0 1004.5 0.0
21/01:00pm 38.4 39.5 17.2 28 13.9 E 7 19 4 10 1007.6 1005.1 0.0
21/12:30pm 37.2 36.6 16.7 29 13.3 N 15 28 8 15 1008.2 1005.8 0.0
21/12:00pm 36.7 36.6 17.8 32 12.4 NNW 15 28 8 15 1008.6 1006.2 0.0
21/11:30am 35.0 34.3 16.3 32 12.0 N 15 20 8 11 1009.0 1006.6 0.0
21/11:00am 34.5 34.3 17.7 37 11.0 NW 15 22 8 12 1009.6 1007.1 0.0
21/10:30am 33.9 33.7 18.4 40 10.2 NW 17 26 9 14 1009.9 1007.4 0.0
21/10:00am 32.6 33.1 18.4 43 9.3 NW 13 19 7 10 1010.2 1007.7 0.0
21/09:30am 31.9 31.8 18.8 45 8.6 WNW 17 26 9 14 1010.3 1007.8 0.0
21/09:00am 31.1 32.0 18.5 47 8.2 NW 11 17 6 9 1010.4 1007.9 0.0
21/08:30am 30.3 31.3 18.7 50 7.6 NNW 11 17 6 9 1010.5 1008.0 0.0
21/08:00am 29.9 31.1 19.0 52 7.2 N 11 15 6 8 1010.4 1007.9 0.0
21/07:30am 29.1 28.5 18.5 52 6.9 NE 19 26 10 14 1010.1 1007.6 0.0
21/07:00am 27.7 26.9 18.4 57 6.0 ENE 20 26 11 14 1010.2 1007.7 0.0
21/06:30am 26.2 26.4 18.6 63 4.9 ENE 15 19 8 10 1010.3 1007.8 0.0
21/06:00am 25.8 25.8 18.2 63 4.9 E 15 19 8 10 1009.9 1007.4 0.0
21/05:30am 25.9 25.6 18.3 63 4.9 ENE 17 24 9 13 1009.6 1007.1 0.0
21/05:00am 26.2 25.3 18.3 61 5.1 E 20 30 11 16 1009.4 1007.0 0.0
21/04:30am 26.9 27.3 19.0 62 5.1 E 15 22 8 12 1009.4 1007.0 0.0
21/04:00am 26.9 28.1 20.0 66 4.6 ESE 13 17 7 9 1009.6 1007.1 0.0
21/03:30am 26.8 28.3 20.6 69 4.1 ESE 13 17 7 9 1009.6 1007.1 0.0
21/03:00am 26.6 28.0 20.4 69 4.1 SE 13 17 7 9 1009.2 1006.8 0.0
21/02:30am 26.2 28.8 20.5 71 3.8 E 7 7 4 4 1009.0 1006.6 0.0
21/02:00am 26.6 29.2 20.4 69 4.1 E 7 13 4 7 1009.2 1006.8 0.0
21/01:30am 27.1 29.4 19.9 64 4.7 SSE 7 11 4 6 1009.8 1007.3 0.0
21/01:00am 27.0 28.6 19.9 65 4.7 S 11 17 6 9 1009.8 1007.3 0.0
21/12:30am 26.6 26.1 20.0 67 4.3 S 22 32 12 17 1009.9 1007.4 0.0
21/12:00am 26.5 26.5 20.1 68 4.2 S 20 28 11 15 1010.0 1007.5 0.0
 
Date/Time
WST
Temp
°C
App
Temp
°C
Dew
Point
Rel
Hum
%
Delta-T
°C
Wind Press
QNH
hPa
Press
MSL
hPa
Rain
since 9 am
mm
Dir
 
Spd
km/h
Gust
km/h
Spd
kts
Gust
kts
20/11:30pm 26.3 28.6 20.6 71 3.8 SE 9 11 5 6 1008.6 1006.2 0.0
20/11:00pm 26.1 27.8 20.2 70 3.9 SSE 11 15 6 8 1008.1 1005.6 0.0
20/10:30pm 26.7 28.0 20.1 67 4.4 S 13 20 7 11 1007.9 1005.4 0.0
20/10:00pm 27.4 26.9 19.2 61 5.4 N 20 32 11 17 1007.2 1004.7 0.0
20/09:30pm 28.0 26.8 18.4 56 6.2 NNW 22 32 12 17 1007.2 1004.7 0.0
20/09:00pm 25.6 24.6 19.7 70 3.9 NW 24 33 13 18 1008.8 1006.4 0.0
20/08:30pm 26.5 25.7 20.1 68 4.2 NW 24 35 13 19 1008.7 1006.3 0.0
20/08:00pm 25.6 24.6 19.7 70 3.9 NW 24 35 13 19 1008.2 1005.8 0.0
20/07:36pm 26.0 22.4 20.1 70 3.9 WNW 39 56 21 30 1008.9 1006.5 0.0
20/07:30pm 26.0 22.4 21.0 74 3.3 WNW 41 56 22 30 1008.9 1006.5 0.0
20/07:10pm 28.2 23.8 20.5 63 5.1 WNW 44 63 24 34 1009.4 1007.0 0.0
20/07:00pm 30.0 26.2 20.5 56 6.4 NW 41 57 22 31 1009.2 1006.8 0.0
20/06:44pm 30.7 29.0 19.7 52 7.3 NNW 28 48 15 26 1007.9 1005.4 0.0
20/06:30pm 31.2 29.2 19.9 51 7.5 NNW 30 44 16 24 1007.3 1004.8 0.0
20/06:22pm 32.4 30.8 19.3 46 8.7 NNE 26 44 14 24 1007.4 1004.9 0.0
20/06:00pm 36.9 37.2 18.0 33 12.5 NNE 13 19 7 10 1006.7 1004.2 0.0
20/05:30pm 37.2 36.4 17.2 30 13.1 NE 17 26 9 14 1006.3 1003.8 0.0
20/05:00pm 38.1 36.8 16.9 28 13.9 ENE 19 32 10 17 1005.6 1003.2 0.0
20/04:30pm 38.3 37.5 16.0 27 14.4 NE 15 22 8 12 1005.7 1003.3 0.0
20/04:00pm 38.0 37.9 16.9 29 13.8 NNE 13 20 7 11 1006.0 1003.5 0.0
20/03:30pm 38.4 38.6 16.7 28 14.1 NE 11 17 6 9 1006.5 1004.0 0.0
20/03:00pm 37.9 37.4 16.8 29 13.8 NE 15 22 8 12 1007.0 1004.5 0.0
20/02:30pm 38.3 38.6 17.1 28 13.9 ESE 11 22 6 12 1007.4 1004.9 0.0
20/02:00pm 37.4 36.9 16.9 30 13.4 E 15 22 8 12 1007.9 1005.4 0.0
20/01:30pm 37.4 37.1 17.4 30 13.1 ESE 15 24 8 13 1008.4 1006.0 0.0
20/01:00pm 36.7 36.2 17.8 32 12.4 SE 17 28 9 15 1009.1 1006.7 0.0
20/12:30pm 36.2 35.5 19.6 37 11.2 ESE 22 33 12 18 1009.8 1007.3 0.0
20/12:00pm 35.6 35.8 16.8 32 12.2 ENE 11 17 6 9 1010.3 1007.8 0.0
20/11:30am 35.1 35.1 18.2 36 11.1 NE 15 20 8 11 1010.7 1008.2 0.0
20/11:00am 33.7 34.7 19.4 43 9.5 ENE 13 20 7 11 1011.3 1008.8 0.0
20/10:30am 32.9 33.6 19.7 45 8.8 E 15 20 8 11 1011.7 1009.3 0.0
20/10:00am 31.2 32.0 19.9 51 7.5 ENE 15 22 8 12 1012.2 1009.8 0.0
20/09:30am 29.7 30.3 20.3 57 6.3 E 17 22 9 12 1012.2 1009.8 0.0
20/09:00am 28.8 29.4 21.0 62 5.2 E 19 24 10 13 1012.4 1010.0 16.8
20/08:30am 27.8 28.2 21.8 70 4.1 ESE 22 28 12 15 1012.5 1010.1 16.8
20/08:00am 26.9 27.1 21.4 72 3.7 E 22 30 12 16 1012.6 1010.2 16.8
20/07:30am 25.9 25.2 21.1 75 3.2 E 26 32 14 17 1012.7 1010.3 16.8
20/07:16am 26.7 25.6 21.0 71 3.8 E 28 35 15 19 1012.7 1010.3 16.8
20/07:00am 26.1 27.8 20.9 73 3.5 E 13 17 7 9 1012.5 1010.1 16.8
20/06:30am 26.1 27.7 20.0 69 4.0 SSW 11 17 6 9 1011.9 1009.5 16.8
20/06:00am 26.1 25.6 19.2 65 4.5 SW 20 28 11 15 1011.6 1009.2 16.8
20/05:30am 25.8 26.9 19.7 69 4.0 SW 13 19 7 10 1011.5 1009.1 16.8
20/05:00am 25.7 24.8 19.8 70 3.9 SSW 24 33 13 18 1011.3 1008.8 16.8
20/04:30am 25.4 23.6 19.5 70 3.8 SSW 28 37 15 20 1011.3 1008.8 16.8
20/04:00am 25.3 23.6 19.0 68 4.1 SW 26 41 14 22 1011.7 1009.3 16.8
20/03:30am 25.1 23.6 19.5 71 3.6 SW 26 39 14 21 1011.4 1009.0 16.8
20/03:00am 23.3 22.8 19.9 81 2.2 S 22 32 12 17 1011.6 1009.2 16.8
20/02:30am 24.4 23.2 19.2 73 3.4 S 24 30 13 16 1011.4 1009.0 16.4
20/02:00am 23.5 22.5 18.8 75 3.0 WNW 22 44 12 24 1011.5 1009.1 15.4
20/01:51am 26.1 22.6 16.6 55 5.9 NNW 30 59 16 32 1011.5 1009.1 12.2
20/01:43am 24.3 21.7 16.8 63 4.7 SSE 26 56 14 30 1012.8 1010.4 8.0
20/01:30am 24.5 23.4 18.7 70 3.7 SSE 22 33 12 18 1012.7 1010.3 1.0
20/01:17am 24.6 22.2 19.2 72 3.5 SE 30 39 16 21 1012.6 1010.2 0.4
20/01:00am 24.6 20.9 21.5 83 2.1 SSE 43 52 23 28 1012.2 1009.8 0.4
20/12:37am 25.2 22.8 21.9 82 2.2 SE 37 57 20 31 1012.3 1009.9 0.0
20/12:30am 25.4 22.3 21.9 81 2.4 SE 41 54 22 29 1012.1 1009.7 0.0
20/12:28am 25.5 22.2 21.6 79 2.6 SE 41 54 22 29 1012.0 1009.6 0.0
20/12:00am 30.5 28.0 19.8 52 7.1 SE 32 41 17 22 1011.9 1009.5 0.0
 
Date/Time
WST
Temp
°C
App
Temp
°C
Dew
Point
Rel
Hum
%
Delta-T
°C
Wind Press
QNH
hPa
Press
MSL
hPa
Rain
since 9 am
mm
Dir
 
Spd
km/h
Gust
km/h
Spd
kts
Gust
kts
19/11:30pm 32.9 31.7 17.1 39 10.2 NW 19 28 10 15 1011.1 1008.6 0.0
19/11:00pm 33.0 32.2 18.4 42 9.6 NW 20 30 11 16 1011.3 1008.8 0.0
19/10:30pm 33.5 32.1 18.0 39 10.1 NW 22 32 12 17 1010.8 1008.3 0.0
19/10:00pm 33.9 33.9 18.0 39 10.4 NW 15 20 8 11 1010.7 1008.2 0.0
19/09:30pm 34.6 33.7 17.8 37 11.0 NNW 19 32 10 17 1010.3 1007.8 0.0
19/09:00pm 34.9 35.5 17.6 35 11.3 NW 11 15 6 8 1010.1 1007.6 0.0
19/08:30pm 35.4 34.6 17.1 33 11.9 NW 17 22 9 12 1009.9 1007.4 0.0

Other Formats:

Comma delimited format used in spreadsheet applications
http://www.bom.gov.au/fwo/IDW60801/IDW60801.94319.axf

JavaScript Object Notation format (JSON) in row-major order
http://www.bom.gov.au/fwo/IDW60801/IDW60801.94319.json